aviador You're here:

KOFP Decoded Metar

RICHMOND/HANOVER in VA, USA
Report Time2017-11-23 13:54:00
UTC Time2017-11-23 14:58:31
Flight Rules vfr VFR
WindVRB at 03 kt
Visibility9999 m
Phenomena:N/A
Clouds:N/A
Expected CloudBase > 2,400 ft AGL from Temp-Dew spread
CeilingNone
Temp02°C (ISA -13)
Dew Point-4°C (65% RH)
AAT-1.6°C
QNH1023 hPa
Density Alt-1,604 ft
Elevation203 ft
Report Wrong Elevation
Raw Report
KOFP 231354Z AUTO VRB03KT 10SM CLR 02/M04 A3022 RMK AO2 SLP233
T00221044=

Extra information for KOFP:More info

Metar Taf Metar & Taf Last 4 Metars F.Rules Stats Wind Profile Meteogram Temp Stats Airport Information Weather charts Add Link Nearby VenuesMetar ALERT Operation Metar Decoded Social comments

AIRNAV info for KOFP